Sandakan Airport
WBKS : now visible

Airfield :











YOU CAN JOIN US ON...

 
LOGIN :

Register | Disclaimer

   EN    FR    IT 

 









Legend :    VFR   Marginal VFR   IFR   Intensive IFR   Very Intensive IFR
Visi :
Ceiling :
>= 8 km
>= 3000ft
5 to 8 km
1000 to 3000 ft
1500m to 5 km
500 to 1000 ft
800 to 1500m
200 to 500 ft
< 800m
< 200 ft
Symbols :   Thunderstorms  Fog  Heavy snow  Heavy precipitations  Wind > 20 kt






- Airport Elevation : 46 ft
- IATA code : SDK


WBKS - Sandakan

CURRENT METAR :
  • 252000Z VRB02KT 9999 FEW016 24/24 Q1007

EXPIRED METARs :
  • 251900Z 22003KT 160V270 9000 FEW016 25/24 Q1008
  • 251800Z VRB02KT 8000 FEW016 25/24 Q1009

TAF TAF WBKS
Valid from the 25 at 18:00 until the 26 at 18:00 UTC


251700Z 2518/2618 23005KT 8000 FEW013 FEW015CB
TEMPO 2518/2522 5000 RA FEW010 FEW014CB SCT030
TEMPO 2607/2611 3000 TSRA FEW010 FEW016CB SCT035
WBFC FIR / Asia



MET'MAP, your aeronautical weather chart ! - Copyright ORBIFLY December 2007 - Disclaimer

ORBIFLY MET'MAP TEAM :

Programming & Development : Alexandra Zaïnal
Concept & original design : Baudouin d'Aumeries
Assistance for programming : Marc-Olivier Méhu
Technical & hardware support : Manuel Goepfert

Contact : metmap@orbifly.com




SOURCES & CREDITS :

   NOAA       Earth
Advisory